Time;durP1;ratioP1;P1;durP2;ratioP2;P2;SDS_P1;SDS_P2;PMS_P1;PMS_P2;Temp;Humidity;BMP_temperature;BMP_pressure;BME280_temperature;BME280_humidity;BME280_pressure;Samples;Min_cycle;Max_cycle;Signal;HPM_P1;HPM_P2
2022/09/20 00:01:26;;;;;;;5.30;0.60;;;25.00;69.50;;;;;;5068611;28;20125;-77
2022/09/20 00:03:57;;;;;;;6.65;1.30;;;24.30;71.80;;;;;;5062681;28;20499;-78
2022/09/20 00:06:27;;;;;;;1.42;0.73;;;24.50;71.80;;;;;;5064638;28;20368;-78
2022/09/20 00:08:55;;;;;;;1.48;0.63;;;24.90;71.30;;;;;;5044760;28;20121;-78
2022/09/20 00:11:26;;;;;;;3.22;1.33;;;24.80;74.00;;;;;;5057969;28;20161;-77
2022/09/20 00:13:55;;;;;;;2.25;0.60;;;25.10;72.80;;;;;;5059273;28;20032;-75
2022/09/20 00:16:26;;;;;;;2.80;0.50;;;25.40;72.70;;;;;;5064988;28;20517;-80
2022/09/20 00:18:55;;;;;;;2.60;0.82;;;25.50;72.80;;;;;;5061354;28;20029;-79
2022/09/20 00:21:28;;;;;;;1.83;0.60;;;25.70;70.80;;;;;;5063020;28;20033;-76
2022/09/20 00:23:59;;;;;;;0.70;0.52;;;25.60;70.40;;;;;;5058392;28;20025;-76
2022/09/20 00:26:28;;;;;;;2.03;0.40;;;25.50;70.70;;;;;;5061861;28;20111;-77
2022/09/20 00:28:57;;;;;;;5.47;0.50;;;25.50;69.50;;;;;;5061066;28;20043;-78
2022/09/20 00:31:24;;;;;;;1.25;0.30;;;25.40;71.70;;;;;;5059956;28;20121;-75
2022/09/20 00:36:40;;;;;;;3.13;0.45;;;25.60;71.00;;;;;;5063871;28;20047;-80
2022/09/20 00:39:10;;;;;;;2.13;0.63;;;25.70;70.90;;;;;;5065926;28;20025;-80
2022/09/20 00:41:38;;;;;;;2.05;0.50;;;25.50;71.60;;;;;;5064612;28;20051;-87
2022/09/20 00:44:42;;;;;;;1.35;0.50;;;25.70;71.10;;;;;;5064801;28;20029;-84
2022/09/20 00:47:33;;;;;;;2.13;0.65;;;25.80;71.10;;;;;;5060207;28;20035;-83
2022/09/20 00:50:12;;;;;;;3.10;0.70;;;25.80;70.60;;;;;;5059508;28;20046;-85
2022/09/20 00:52:43;;;;;;;1.60;0.30;;;25.30;71.60;;;;;;5066637;28;20021;-84
2022/09/20 00:55:12;;;;;;;0.65;0.20;;;24.90;72.80;;;;;;5058833;28;20036;-84
2022/09/20 00:57:41;;;;;;;2.00;0.30;;;25.30;73.60;;;;;;5065399;28;20115;-77
2022/09/20 01:00:11;;;;;;;1.15;0.20;;;25.40;72.00;;;;;;5066446;28;20099;-78
2022/09/20 01:02:44;;;;;;;4.03;0.40;;;24.80;72.80;;;;;;5069147;28;20502;-84
2022/09/20 01:05:13;;;;;;;1.05;0.40;;;24.70;74.10;;;;;;5062699;28;20064;-81
2022/09/20 01:07:43;;;;;;;0.95;0.30;;;24.90;74.30;;;;;;5065247;28;20372;-82
2022/09/20 01:10:10;;;;;;;3.30;0.95;;;24.80;74.90;;;;;;5064532;28;20056;-82
2022/09/20 01:12:39;;;;;;;1.35;0.30;;;24.90;74.90;;;;;;5068032;28;20029;-79
2022/09/20 01:15:09;;;;;;;2.40;0.35;;;24.90;75.20;;;;;;5057409;28;20086;-86
2022/09/20 01:17:40;;;;;;;2.55;0.30;;;24.40;76.70;;;;;;5062811;28;20816;-78
2022/09/20 01:20:28;;;;;;;1.83;0.50;;;24.50;77.00;;;;;;5059696;28;20703;-82
2022/09/20 01:23:07;;;;;;;0.88;0.20;;;24.70;76.70;;;;;;5066291;28;20032;-79
2022/09/20 01:25:58;;;;;;;1.70;0.20;;;24.70;77.50;;;;;;5057981;28;20094;-83
2022/09/20 01:28:27;;;;;;;2.38;0.30;;;24.80;76.90;;;;;;5065230;28;20042;-79
2022/09/20 01:31:10;;;;;;;2.85;0.47;;;25.10;76.40;;;;;;5063080;28;20418;-82
2022/09/20 01:33:53;;;;;;;0.93;0.45;;;25.00;76.10;;;;;;5068028;28;20019;-79
2022/09/20 01:36:39;;;;;;;3.80;0.45;;;25.10;76.00;;;;;;5068213;28;20125;-81
2022/09/20 01:39:18;;;;;;;1.40;0.30;;;25.00;76.70;;;;;;5064055;28;20032;-81
2022/09/20 01:41:56;;;;;;;1.08;0.32;;;25.00;75.90;;;;;;5062645;28;20070;-84
2022/09/20 01:44:48;;;;;;;3.03;0.40;;;25.10;76.10;;;;;;5056271;28;20025;-84
2022/09/20 01:47:52;;;;;;;1.60;0.65;;;24.80;75.30;;;;;;5063164;28;20021;-85
2022/09/20 01:50:40;;;;;;;0.88;0.40;;;24.60;77.30;;;;;;5057411;28;20127;-84
2022/09/20 01:53:55;;;;;;;1.70;0.52;;;24.70;75.60;;;;;;5055066;28;20028;-79
2022/09/20 01:56:54;;;;;;;2.30;0.30;;;24.80;76.20;;;;;;4996567;28;20045;-75
2022/09/20 01:59:46;;;;;;;3.35;0.70;;;24.70;75.90;;;;;;5055880;28;20549;-79
2022/09/20 02:02:32;;;;;;;4.20;1.33;;;24.80;76.00;;;;;;5054549;28;20032;-80
2022/09/20 02:05:17;;;;;;;1.75;0.43;;;25.00;74.70;;;;;;5057510;28;20059;-77
2022/09/20 02:08:24;;;;;;;0.98;0.93;;;25.00;75.30;;;;;;5058636;28;20047;-75
2022/09/20 02:11:40;;;;;;;2.55;0.45;;;25.00;75.40;;;;;;5055260;28;20052;-80
2022/09/20 02:14:23;;;;;;;2.75;0.43;;;25.50;77.10;;;;;;5041471;28;20059;-80
2022/09/20 02:16:56;;;;;;;0.82;0.25;;;25.40;74.10;;;;;;5039804;28;20116;-80
2022/09/20 02:19:42;;;;;;;0.73;0.50;;;25.30;74.90;;;;;;5061807;28;20758;-80
2022/09/20 02:22:40;;;;;;;2.75;0.30;;;25.60;75.70;;;;;;5059524;28;20033;-83
2022/09/20 02:25:31;;;;;;;1.38;0.20;;;25.80;74.70;;;;;;5059985;28;20063;-78
2022/09/20 02:28:13;;;;;;;1.13;0.50;;;25.90;74.70;;;;;;5053608;28;20082;-79
2022/09/20 02:31:22;;;;;;;2.55;0.80;;;26.10;73.80;;;;;;5057800;28;20085;-74
2022/09/20 02:34:30;;;;;;;0.88;0.40;;;26.20;74.40;;;;;;5059417;28;20109;-80
2022/09/20 02:37:06;;;;;;;1.13;0.30;;;25.80;74.60;;;;;;5062552;28;20021;-81
2022/09/20 02:39:49;;;;;;;0.93;0.52;;;25.60;75.60;;;;;;5056925;28;20084;-79
2022/09/20 02:42:45;;;;;;;0.65;0.20;;;25.70;73.60;;;;;;5054877;28;20028;-78
2022/09/20 02:45:24;;;;;;;0.65;0.28;;;25.80;74.40;;;;;;5053366;28;20040;-81
2022/09/20 02:47:56;;;;;;;0.95;0.32;;;25.80;74.80;;;;;;5067302;28;20158;-88
2022/09/20 02:50:38;;;;;;;1.83;0.20;;;25.10;74.50;;;;;;5067376;28;20116;-79
2022/09/20 02:53:11;;;;;;;3.17;0.60;;;24.80;76.40;;;;;;5065503;28;20036;-77
2022/09/20 02:56:10;;;;;;;2.38;0.70;;;25.20;76.00;;;;;;5060915;28;20036;-80
2022/09/20 02:58:46;;;;;;;1.65;0.32;;;25.50;74.50;;;;;;5052769;28;20031;-80
2022/09/20 03:01:21;;;;;;;0.90;0.30;;;25.40;73.90;;;;;;5065506;28;20036;-75
2022/09/20 03:03:57;;;;;;;;;;;25.70;74.00;;;;;;5060042;28;20025;-78
2022/09/20 03:06:32;;;;;;;3.28;0.30;;;25.80;74.20;;;;;;5068352;28;20003;-79
2022/09/20 03:09:36;;;;;;;0.95;0.30;;;26.00;74.80;;;;;;5069445;28;20060;-78
2022/09/20 03:12:36;;;;;;;1.67;0.50;;;26.10;73.50;;;;;;5057979;28;20085;-82
2022/09/20 03:15:15;;;;;;;1.20;0.45;;;26.10;73.20;;;;;;5060536;28;20032;-79
2022/09/20 03:18:18;;;;;;;0.65;0.20;;;26.00;72.60;;;;;;5070336;28;20028;-77
2022/09/20 03:21:11;;;;;;;0.95;0.30;;;26.10;72.80;;;;;;5064870;28;20395;-76
2022/09/20 03:23:49;;;;;;;0.77;0.20;;;26.20;71.90;;;;;;5045564;28;20108;-76
2022/09/20 03:26:34;;;;;;;1.50;0.50;;;26.20;73.00;;;;;;5069742;28;20026;-79
2022/09/20 03:29:25;;;;;;;1.13;0.40;;;26.40;73.10;;;;;;5072908;28;20072;-78
2022/09/20 03:32:24;;;;;;;1.13;0.35;;;26.30;70.90;;;;;;5056740;28;20131;-76
2022/09/20 03:35:07;;;;;;;1.83;0.30;;;26.20;71.40;;;;;;5059115;28;20028;-80
2022/09/20 03:38:11;;;;;;;0.70;0.10;;;26.40;71.20;;;;;;5057612;28;20033;-77
2022/09/20 03:40:50;;;;;;;1.17;0.20;;;26.30;73.00;;;;;;5068342;28;20421;-77
2022/09/20 03:43:27;;;;;;;1.65;0.30;;;26.40;71.10;;;;;;5068403;28;20351;-80
2022/09/20 03:46:16;;;;;;;0.68;0.50;;;26.40;71.50;;;;;;5073095;28;20044;-76
2022/09/20 03:48:56;;;;;;;1.20;0.45;;;25.50;73.30;;;;;;5058899;28;20106;-79
2022/09/20 03:51:48;;;;;;;1.23;0.40;;;25.00;73.00;;;;;;5073871;28;20109;-79
2022/09/20 03:54:45;;;;;;;1.20;0.30;;;25.30;76.20;;;;;;5063618;28;20091;-79
2022/09/20 03:57:22;;;;;;;0.68;0.20;;;25.50;72.80;;;;;;5058263;28;20104;-78
2022/09/20 04:00:05;;;;;;;1.10;0.20;;;25.50;71.60;;;;;;5066404;28;20025;-80
2022/09/20 04:02:57;;;;;;;0.60;0.15;;;25.60;72.70;;;;;;5040869;28;20029;-79
2022/09/20 04:05:49;;;;;;;1.08;0.10;;;26.00;73.60;;;;;;5069429;28;20040;-82
2022/09/20 04:08:32;;;;;;;1.80;0.30;;;26.10;70.30;;;;;;5076799;28;20475;-78
2022/09/20 04:11:36;;;;;;;0.30;0.10;;;25.80;70.20;;;;;;5068291;28;20044;-80
2022/09/20 04:14:40;;;;;;;0.52;0.22;;;25.60;71.80;;;;;;5056511;28;20036;-75
2022/09/20 04:17:45;;;;;;;0.55;0.20;;;25.60;72.30;;;;;;5044108;28;20098;-78
2022/09/20 04:20:37;;;;;;;0.60;0.30;;;25.80;72.80;;;;;;5064407;28;20021;-77
2022/09/20 04:23:32;;;;;;;0.52;0.20;;;26.10;71.90;;;;;;5064108;28;20060;-80
2022/09/20 04:26:02;;;;;;;0.85;0.30;;;26.00;71.20;;;;;;5060497;28;20031;-79
2022/09/20 04:28:52;;;;;;;1.02;0.32;;;25.90;72.00;;;;;;5062464;28;20029;-78
2022/09/20 04:31:32;;;;;;;0.88;0.25;;;25.80;71.50;;;;;;5054513;28;20053;-84
2022/09/20 04:34:01;;;;;;;0.52;0.20;;;25.70;72.10;;;;;;5072965;28;20040;-79
2022/09/20 04:36:57;;;;;;;1.58;0.30;;;25.70;72.00;;;;;;5075402;28;20020;-78
2022/09/20 04:39:32;;;;;;;3.40;0.85;;;25.60;71.80;;;;;;5064416;28;20028;-79
2022/09/20 04:42:06;;;;;;;1.50;0.10;;;25.40;71.50;;;;;;5074844;28;20036;-80
2022/09/20 04:45:07;;;;;;;1.70;0.30;;;25.40;72.00;;;;;;5074123;28;20359;-76
2022/09/20 04:47:35;;;;;;;1.35;0.28;;;25.30;72.40;;;;;;5062688;28;20039;-91
2022/09/20 04:50:12;;;;;;;1.15;0.28;;;25.20;72.10;;;;;;5071568;28;20383;-86
2022/09/20 04:52:54;;;;;;;3.25;0.28;;;25.10;72.30;;;;;;5075347;28;20169;-87
2022/09/20 04:55:34;;;;;;;0.32;0.30;;;25.20;72.80;;;;;;5066098;28;20037;-85
2022/09/20 04:58:31;;;;;;;0.68;0.30;;;25.00;72.40;;;;;;5060856;28;20017;-87
2022/09/20 05:01:27;;;;;;;0.82;0.40;;;24.80;74.30;;;;;;5075251;28;20052;-81
2022/09/20 05:04:17;;;;;;;1.77;0.50;;;24.80;74.20;;;;;;5065245;28;20399;-84
2022/09/20 05:06:57;;;;;;;0.85;0.25;;;24.70;75.00;;;;;;5065572;28;20025;-83
2022/09/20 05:09:49;;;;;;;2.40;0.30;;;24.90;74.50;;;;;;5067793;28;20044;-82
2022/09/20 05:12:26;;;;;;;1.33;0.30;;;25.00;75.00;;;;;;5080774;28;20016;-86
2022/09/20 05:15:11;;;;;;;0.82;0.52;;;25.00;74.20;;;;;;5078051;28;20044;-86
2022/09/20 05:18:04;;;;;;;3.10;0.35;;;25.00;72.70;;;;;;5065639;28;20028;-86
2022/09/20 05:20:56;;;;;;;1.88;0.30;;;24.90;73.10;;;;;;5063530;28;20060;-87
2022/09/20 05:23:44;;;;;;;2.08;1.20;;;24.90;73.00;;;;;;5068078;28;20025;-86
2022/09/20 05:26:21;;;;;;;0.47;0.40;;;24.70;72.80;;;;;;5079239;28;20016;-77
2022/09/20 05:29:08;;;;;;;0.47;0.20;;;24.50;73.10;;;;;;5080413;28;20364;-84
2022/09/20 05:31:51;;;;;;;1.00;0.15;;;24.40;73.50;;;;;;5078708;28;20103;-85
2022/09/20 05:34:41;;;;;;;1.05;0.43;;;24.40;74.50;;;;;;5072186;28;20475;-86
2022/09/20 05:37:32;;;;;;;3.03;0.88;;;24.50;75.60;;;;;;5063813;28;20025;-84
2022/09/20 05:40:05;;;;;;;2.17;0.82;;;24.30;75.10;;;;;;5070044;28;20021;-80
2022/09/20 05:42:43;;;;;;;2.05;0.40;;;24.30;76.40;;;;;;5081432;28;20016;-87
2022/09/20 05:45:38;;;;;;;2.50;1.02;;;24.30;75.10;;;;;;5074397;28;20032;-87
2022/09/20 05:48:31;;;;;;;1.90;0.40;;;24.20;74.90;;;;;;5068064;28;20100;-80
2022/09/20 05:51:16;;;;;;;2.22;0.60;;;24.10;75.90;;;;;;5077180;28;20037;-83
2022/09/20 05:54:20;;;;;;;0.65;0.20;;;24.20;75.80;;;;;;5069111;28;20102;-79
2022/09/20 05:57:06;;;;;;;1.50;0.32;;;24.20;75.70;;;;;;5066670;28;20514;-80
2022/09/20 06:00:00;;;;;;;2.17;0.32;;;24.20;76.10;;;;;;5063330;28;20038;-86
2022/09/20 06:02:34;;;;;;;1.67;0.47;;;24.30;75.60;;;;;;5065977;28;20487;-79
2022/09/20 06:05:09;;;;;;;5.78;0.50;;;24.30;75.70;;;;;;5043766;28;20388;-87
2022/09/20 06:07:52;;;;;;;1.98;0.35;;;24.20;76.10;;;;;;5057485;28;20098;-82
2022/09/20 06:10:42;;;;;;;2.22;0.75;;;24.00;77.10;;;;;;5061027;28;20069;-81
2022/09/20 06:13:37;;;;;;;4.00;0.90;;;23.60;78.80;;;;;;5054626;28;20422;-78
2022/09/20 06:16:06;;;;;;;5.80;0.50;;;23.20;82.20;;;;;;5062548;28;20035;-84
2022/09/20 06:19:03;;;;;;;1.27;0.50;;;22.90;83.30;;;;;;5059175;28;20443;-89
2022/09/20 06:21:52;;;;;;;4.75;0.68;;;22.70;83.70;;;;;;5048830;28;20124;-79
2022/09/20 06:24:26;;;;;;;2.65;0.50;;;22.40;84.70;;;;;;5057901;28;20583;-80
2022/09/20 06:26:55;;;;;;;20.73;10.45;;;22.20;85.70;;;;;;5063668;28;20043;-82
2022/09/20 06:29:32;;;;;;;2.13;0.90;;;22.10;86.10;;;;;;5060401;28;20045;-91
2022/09/20 06:31:59;;;;;;;0.50;0.30;;;22.00;86.70;;;;;;5059823;28;20204;-84
2022/09/20 06:34:28;;;;;;;1.45;0.40;;;21.90;87.30;;;;;;5060822;28;20032;-83
2022/09/20 06:43:20;;;;;;;1.35;0.55;;;21.50;88.40;;;;;;5059905;28;20387;-78
2022/09/20 06:45:47;;;;;;;5.45;0.77;;;21.40;89.10;;;;;;5056062;28;20059;-78
2022/09/20 06:48:15;;;;;;;4.22;0.47;;;21.30;89.40;;;;;;5062619;28;20111;-79
2022/09/20 06:50:44;;;;;;;2.97;0.50;;;21.20;90.00;;;;;;5057163;28;20579;-79
2022/09/20 06:53:27;;;;;;;3.10;0.50;;;21.20;90.20;;;;;;5055367;28;20032;-80
2022/09/20 06:55:56;;;;;;;5.00;0.63;;;21.20;90.30;;;;;;5066644;28;20099;-81
2022/09/20 06:58:25;;;;;;;3.65;0.52;;;21.10;90.50;;;;;;5037266;28;20087;-80
2022/09/20 07:00:52;;;;;;;2.80;0.70;;;21.00;90.80;;;;;;5055657;28;20376;-78
2022/09/20 07:03:20;;;;;;;5.07;0.60;;;20.90;91.10;;;;;;5055310;28;20036;-80
2022/09/20 07:05:47;;;;;;;2.70;0.50;;;20.80;91.40;;;;;;5065787;28;20056;-82
2022/09/20 07:08:15;;;;;;;3.35;0.60;;;20.70;91.60;;;;;;5063706;28;20054;-80
2022/09/20 07:10:42;;;;;;;2.45;0.52;;;20.60;91.80;;;;;;5075376;28;20036;-80
2022/09/20 07:13:12;;;;;;;2.50;0.50;;;20.50;92.10;;;;;;5069552;28;20033;-80
2022/09/20 07:15:40;;;;;;;5.55;0.75;;;20.40;92.40;;;;;;5060731;28;20179;-80
2022/09/20 07:18:07;;;;;;;3.00;0.68;;;20.20;93.10;;;;;;5059542;28;20025;-81
2022/09/20 07:20:35;;;;;;;2.72;0.50;;;20.00;93.10;;;;;;5059190;28;20013;-79
2022/09/20 07:23:02;;;;;;;3.47;0.50;;;19.80;93.40;;;;;;5070467;28;20029;-79
2022/09/20 07:25:31;;;;;;;3.00;0.85;;;19.60;93.70;;;;;;5062843;28;20082;-79
2022/09/20 07:27:58;;;;;;;5.22;0.63;;;19.60;93.70;;;;;;5070442;28;20040;-79
2022/09/20 07:30:26;;;;;;;3.10;1.05;;;19.50;94.00;;;;;;5066490;28;20740;-79
2022/09/20 07:32:53;;;;;;;4.10;0.60;;;19.50;94.10;;;;;;5071617;28;20055;-81
2022/09/20 07:35:21;;;;;;;3.33;0.57;;;19.40;94.30;;;;;;5061887;28;20036;-79
2022/09/20 07:37:48;;;;;;;1.45;0.50;;;19.30;94.30;;;;;;5063400;28;20032;-78
2022/09/20 07:40:16;;;;;;;3.53;0.50;;;19.20;94.30;;;;;;5052021;28;20040;-76
2022/09/20 07:42:44;;;;;;;4.18;0.85;;;19.10;94.40;;;;;;5063340;28;20075;-78
2022/09/20 07:45:12;;;;;;;4.47;0.90;;;19.10;94.60;;;;;;5061894;28;20432;-78
2022/09/20 07:47:40;;;;;;;2.78;0.55;;;18.90;94.70;;;;;;5065866;28;20031;-77
2022/09/20 07:50:10;;;;;;;4.43;0.60;;;18.70;94.90;;;;;;5063059;28;20059;-79
2022/09/20 07:52:37;;;;;;;2.03;0.98;;;18.60;95.30;;;;;;5059699;28;20027;-78
2022/09/20 07:55:05;;;;;;;2.08;0.35;;;18.50;95.40;;;;;;5067339;28;20086;-78
2022/09/20 07:57:36;;;;;;;6.65;0.50;;;18.40;95.60;;;;;;5055639;28;20056;-76
2022/09/20 08:00:05;;;;;;;5.70;0.73;;;18.40;95.80;;;;;;5058618;28;20592;-77
2022/09/20 08:02:33;;;;;;;5.15;0.98;;;18.30;96.00;;;;;;5063694;28;20132;-76
2022/09/20 08:05:00;;;;;;;2.30;0.50;;;18.30;96.10;;;;;;5055119;28;20102;-76
2022/09/20 08:07:29;;;;;;;5.07;0.98;;;18.20;96.30;;;;;;5062103;28;20028;-78
2022/09/20 08:09:56;;;;;;;1.63;0.40;;;18.10;96.40;;;;;;5052939;28;20114;-77
2022/09/20 08:12:25;;;;;;;6.75;0.85;;;18.10;96.70;;;;;;5052134;28;20039;-77
2022/09/20 08:14:52;;;;;;;5.60;0.70;;;18.00;96.80;;;;;;5056512;28;20028;-77
2022/09/20 08:17:20;;;;;;;3.88;0.52;;;18.00;97.00;;;;;;5063937;28;20463;-76
2022/09/20 08:19:47;;;;;;;3.67;0.47;;;17.90;97.00;;;;;;5054933;28;20029;-76
2022/09/20 08:22:14;;;;;;;8.40;1.02;;;17.80;97.10;;;;;;5067663;28;20025;-77
2022/09/20 08:24:43;;;;;;;2.63;0.70;;;17.80;97.20;;;;;;5062285;28;20029;-75
2022/09/20 08:27:11;;;;;;;5.22;0.75;;;17.80;97.30;;;;;;5058821;28;20025;-78
2022/09/20 08:29:39;;;;;;;1.42;0.70;;;17.70;97.30;;;;;;5054146;28;20037;-75
2022/09/20 08:32:06;;;;;;;5.20;1.33;;;17.60;97.50;;;;;;5056958;28;20041;-78
2022/09/20 08:34:34;;;;;;;4.32;0.80;;;17.60;97.60;;;;;;5056706;28;20039;-76
2022/09/20 08:37:01;;;;;;;4.45;0.50;;;17.50;97.60;;;;;;5056390;28;20115;-76
2022/09/20 08:39:28;;;;;;;4.43;0.77;;;17.50;97.70;;;;;;5056051;28;20054;-78
2022/09/20 08:42:17;;;;;;;5.72;0.60;;;17.40;97.80;;;;;;5053098;28;20032;-79
2022/09/20 08:44:51;;;;;;;2.63;0.50;;;17.50;97.90;;;;;;5053416;28;20036;-80
2022/09/20 08:47:24;;;;;;;6.22;0.60;;;17.40;98.00;;;;;;5049901;28;20059;-81
2022/09/20 08:49:53;;;;;;;2.35;0.60;;;17.40;98.10;;;;;;5049098;28;20040;-79
2022/09/20 08:52:29;;;;;;;3.50;0.82;;;17.30;98.10;;;;;;5054723;28;20029;-76
2022/09/20 08:54:58;;;;;;;3.90;0.90;;;17.30;98.20;;;;;;5060810;28;20078;-79
2022/09/20 08:57:31;;;;;;;2.00;0.77;;;17.20;98.30;;;;;;5050831;28;20060;-78
2022/09/20 09:00:04;;;;;;;2.88;0.68;;;17.20;98.40;;;;;;5050398;28;20027;-81
2022/09/20 09:02:33;;;;;;;1.50;0.60;;;17.20;98.50;;;;;;5060775;28;20040;-82
2022/09/20 09:05:01;;;;;;;6.32;0.68;;;17.10;98.60;;;;;;5059501;28;20036;-87
2022/09/20 09:07:30;;;;;;;3.05;0.47;;;17.10;98.70;;;;;;5059713;28;20044;-84
2022/09/20 09:09:59;;;;;;;3.97;0.45;;;17.00;98.70;;;;;;5057559;28;20048;-83
2022/09/20 09:12:30;;;;;;;3.13;0.60;;;17.00;98.80;;;;;;5062954;28;20093;-82
2022/09/20 09:15:18;;;;;;;6.30;1.27;;;17.00;99.00;;;;;;5060191;28;20067;-79
2022/09/20 09:17:45;;;;;;;4.10;0.50;;;17.00;99.10;;;;;;5058132;28;20033;-80
2022/09/20 09:20:20;;;;;;;5.68;1.17;;;16.90;99.20;;;;;;5057613;28;20051;-82
2022/09/20 09:22:58;;;;;;;7.53;1.27;;;16.80;99.30;;;;;;5056773;28;20036;-84
2022/09/20 09:25:39;;;;;;;5.60;1.40;;;16.90;99.40;;;;;;5056920;28;20040;-87
2022/09/20 09:28:09;;;;;;;12.65;1.20;;;16.80;99.40;;;;;;5059218;28;20052;-83
2022/09/20 09:30:42;;;;;;;2.05;0.60;;;16.70;99.70;;;;;;5061990;28;20117;-81
2022/09/20 09:33:31;;;;;;;8.13;0.70;;;16.70;99.80;;;;;;5056299;28;20041;-87
2022/09/20 09:36:43;;;;;;;4.38;0.70;;;16.70;99.90;;;;;;5058095;28;20041;-86
2022/09/20 09:39:28;;;;;;;4.50;0.70;;;16.60;99.90;;;;;;5006869;28;20117;-82
2022/09/20 09:41:59;;;;;;;8.57;2.45;;;16.60;99.90;;;;;;5002915;28;20119;-79
2022/09/20 09:44:34;;;;;;;6.43;1.17;;;16.50;99.90;;;;;;5041676;28;20041;-80
2022/09/20 09:47:02;;;;;;;3.38;0.70;;;16.50;99.90;;;;;;5058711;28;20395;-83
2022/09/20 09:49:34;;;;;;;5.07;1.05;;;16.50;99.90;;;;;;5054168;28;20028;-79
2022/09/20 09:52:12;;;;;;;2.50;0.70;;;16.50;99.90;;;;;;5060605;28;20038;-81
2022/09/20 09:54:47;;;;;;;1.77;0.57;;;16.50;99.90;;;;;;5054573;28;20468;-81
2022/09/20 09:57:31;;;;;;;5.00;0.70;;;16.40;99.90;;;;;;5057087;28;20028;-79
2022/09/20 10:00:16;;;;;;;7.00;1.17;;;16.40;99.90;;;;;;5056875;28;20344;-83
2022/09/20 10:03:20;;;;;;;4.68;0.63;;;16.30;99.90;;;;;;5059123;28;20047;-82
2022/09/20 10:06:11;;;;;;;2.63;1.10;;;16.30;99.90;;;;;;5056392;28;20482;-81
2022/09/20 10:08:45;;;;;;;6.78;1.00;;;16.20;99.90;;;;;;5060161;28;20066;-80
2022/09/20 10:11:29;;;;;;;6.35;0.90;;;16.20;99.90;;;;;;5061119;28;20063;-81
2022/09/20 10:14:21;;;;;;;6.60;1.00;;;16.10;99.90;;;;;;5053127;28;20028;-81
2022/09/20 10:17:12;;;;;;;5.88;0.90;;;16.00;99.90;;;;;;5057848;28;20166;-79
2022/09/20 10:19:51;;;;;;;4.68;1.27;;;15.90;99.90;;;;;;5054645;28;20020;-80
2022/09/20 10:22:26;;;;;;;4.55;0.90;;;15.80;99.90;;;;;;5055397;28;20506;-79
2022/09/20 10:25:11;;;;;;;3.92;1.33;;;15.70;99.90;;;;;;5054343;28;20049;-83
2022/09/20 10:27:51;;;;;;;5.35;1.30;;;15.70;99.90;;;;;;5058461;28;20111;-81
2022/09/20 10:30:25;;;;;;;5.82;1.13;;;15.60;99.90;;;;;;5055341;28;20040;-78
2022/09/20 10:33:14;;;;;;;3.05;0.98;;;15.60;99.90;;;;;;5064352;28;20049;-83
2022/09/20 10:36:04;;;;;;;4.22;1.00;;;15.60;99.90;;;;;;5052348;28;20487;-79
2022/09/20 10:38:43;;;;;;;2.60;0.82;;;15.60;99.90;;;;;;5055555;28;20029;-82
2022/09/20 10:44:30;;;;;;;4.30;0.85;;;15.50;99.90;;;;;;5056459;28;20043;-80
2022/09/20 10:47:06;;;;;;;3.97;1.23;;;15.50;99.90;;;;;;5063771;28;20112;-78
2022/09/20 10:49:56;;;;;;;;;;;15.40;99.90;;;;;;5060839;28;20028;-82
2022/09/20 10:52:53;;;;;;;4.00;0.60;;;15.30;99.90;;;;;;5036208;28;20864;-78
2022/09/20 10:55:30;;;;;;;5.50;0.90;;;15.20;99.90;;;;;;5052998;28;20060;-81
2022/09/20 10:58:47;;;;;;;3.97;0.77;;;15.30;99.90;;;;;;5054987;28;20032;-79
2022/09/20 11:01:53;;;;;;;3.92;0.90;;;15.20;99.90;;;;;;5031685;28;20109;-81
2022/09/20 11:04:47;;;;;;;5.30;1.38;;;15.20;99.90;;;;;;5054883;28;20136;-79
2022/09/20 11:07:52;;;;;;;2.88;0.52;;;15.20;99.90;;;;;;5058713;28;20471;-80
2022/09/20 11:10:29;;;;;;;1.75;0.70;;;15.10;99.90;;;;;;5055976;28;20041;-80
2022/09/20 11:13:26;;;;;;;1.45;0.52;;;15.10;99.90;;;;;;5059526;28;20043;-82
2022/09/20 11:16:09;;;;;;;2.17;0.60;;;15.10;99.90;;;;;;5053537;28;20434;-79
2022/09/20 11:18:59;;;;;;;2.67;1.08;;;15.10;99.90;;;;;;5057722;28;20108;-81
2022/09/20 11:21:53;;;;;;;2.10;0.73;;;15.10;99.90;;;;;;5060831;28;20043;-82
2022/09/20 11:24:24;;;;;;;4.57;1.20;;;15.00;99.90;;;;;;5058464;28;20032;-81
2022/09/20 11:26:59;;;;;;;5.90;1.05;;;15.10;99.90;;;;;;5041581;28;20029;-83
2022/09/20 11:29:38;;;;;;;1.65;0.73;;;15.10;99.90;;;;;;5059127;28;20666;-82
2022/09/20 11:32:35;;;;;;;3.90;0.70;;;15.00;99.90;;;;;;5057182;28;20115;-81
2022/09/20 11:35:13;;;;;;;3.83;1.35;;;14.90;99.90;;;;;;5054641;28;20038;-82
2022/09/20 11:37:59;;;;;;;3.83;0.98;;;14.80;99.90;;;;;;5057961;28;20028;-79
2022/09/20 11:40:29;;;;;;;;;;;14.60;99.90;;;;;;5066325;28;20471;-80
2022/09/20 11:43:05;;;;;;;4.68;1.45;;;14.50;99.90;;;;;;5065678;28;20086;-79
2022/09/20 11:45:33;;;;;;;9.75;1.75;;;14.50;99.90;;;;;;5057639;28;20028;-79
2022/09/20 11:48:10;;;;;;;4.03;1.70;;;14.40;99.90;;;;;;5054557;28;20041;-79
2022/09/20 11:51:14;;;;;;;4.00;1.25;;;14.40;99.90;;;;;;5060905;28;20143;-82
2022/09/20 11:54:16;;;;;;;2.85;1.02;;;14.30;99.90;;;;;;5055200;28;20035;-79
2022/09/20 11:56:56;;;;;;;4.88;1.88;;;14.20;99.90;;;;;;5057235;28;20036;-81
2022/09/20 11:59:29;;;;;;;5.90;1.58;;;14.20;99.90;;;;;;5066222;28;20037;-79
2022/09/20 12:02:00;;;;;;;4.90;1.48;;;14.10;99.90;;;;;;5067107;28;20032;-80
2022/09/20 12:04:31;;;;;;;5.90;1.60;;;14.10;99.90;;;;;;5066519;28;20032;-79
2022/09/20 12:07:15;;;;;;;4.57;1.60;;;13.90;99.90;;;;;;5068513;28;20608;-80
2022/09/20 12:09:55;;;;;;;3.88;1.20;;;13.90;99.90;;;;;;5066828;28;20040;-81
2022/09/20 12:12:30;;;;;;;5.88;1.42;;;13.80;99.90;;;;;;5067688;28;20400;-80
2022/09/20 12:15:00;;;;;;;3.50;1.65;;;13.80;99.90;;;;;;5060549;28;20040;-79
2022/09/20 12:17:45;;;;;;;1.90;0.98;;;13.80;99.90;;;;;;5075016;28;20131;-81
2022/09/20 12:20:30;;;;;;;5.03;1.30;;;13.70;99.90;;;;;;5066828;28;20043;-79
2022/09/20 12:23:34;;;;;;;3.17;0.80;;;13.70;99.90;;;;;;5067020;28;20475;-79
2022/09/20 12:26:12;;;;;;;5.55;1.05;;;13.60;99.90;;;;;;5066229;28;20422;-77
2022/09/20 12:28:42;;;;;;;4.40;1.02;;;13.60;99.90;;;;;;5067312;28;20047;-80
2022/09/20 12:31:19;;;;;;;4.22;1.30;;;13.50;99.90;;;;;;5067484;28;20075;-79
2022/09/20 12:34:09;;;;;;;3.63;0.80;;;13.50;99.90;;;;;;5065960;28;20024;-78
2022/09/20 12:36:39;;;;;;;1.65;0.60;;;13.40;99.90;;;;;;5070529;28;20078;-79
2022/09/20 12:39:17;;;;;;;3.15;1.40;;;13.40;99.90;;;;;;5065734;28;20552;-79
2022/09/20 12:41:55;;;;;;;2.45;0.90;;;13.40;99.90;;;;;;5062677;28;20482;-78
2022/09/20 12:44:48;;;;;;;3.20;1.00;;;13.40;99.90;;;;;;5065072;28;20170;-79
2022/09/20 12:47:34;;;;;;;2.33;1.25;;;13.30;99.90;;;;;;5063069;28;20037;-79
2022/09/20 12:52:59;;;;;;;4.65;1.02;;;13.30;99.90;;;;;;5067077;28;20040;-80
2022/09/20 12:55:28;;;;;;;2.10;0.90;;;13.20;99.90;;;;;;5069252;28;20017;-75
2022/09/20 12:58:00;;;;;;;6.28;1.83;;;13.20;99.90;;;;;;5067848;28;20457;-79
2022/09/20 13:00:44;;;;;;;2.15;0.90;;;13.20;99.90;;;;;;5055891;28;20039;-79
2022/09/20 13:03:30;;;;;;;3.67;1.63;;;13.20;99.90;;;;;;5072295;28;20067;-80
2022/09/20 13:06:13;;;;;;;4.13;1.30;;;13.20;99.90;;;;;;5066301;28;20387;-78
2022/09/20 13:09:03;;;;;;;5.38;1.15;;;13.10;99.90;;;;;;5052659;28;20422;-80
2022/09/20 13:11:56;;;;;;;5.43;1.35;;;13.10;99.90;;;;;;5053856;28;20048;-80
2022/09/20 13:14:33;;;;;;;2.83;0.80;;;13.10;99.90;;;;;;5065453;28;20387;-79
2022/09/20 13:17:03;;;;;;;4.93;2.38;;;13.00;99.90;;;;;;5054853;28;20084;-80
2022/09/20 13:19:33;;;;;;;5.35;2.72;;;12.90;99.90;;;;;;5069253;28;20025;-76
2022/09/20 13:22:00;;;;;;;3.33;2.40;;;12.90;99.90;;;;;;5060385;28;20194;-77
2022/09/20 13:24:36;;;;;;;3.55;1.10;;;12.90;99.90;;;;;;5062190;28;20537;-76
2022/09/20 13:27:13;;;;;;;6.28;0.95;;;12.90;99.90;;;;;;5060016;28;20105;-78
2022/09/20 13:29:44;;;;;;;4.10;1.05;;;12.90;99.90;;;;;;5076743;28;20072;-79
2022/09/20 13:32:25;;;;;;;2.53;0.90;;;12.90;99.90;;;;;;5062902;28;20056;-80
2022/09/20 13:35:23;;;;;;;4.07;1.25;;;12.90;99.90;;;;;;5075994;28;20028;-80
2022/09/20 13:37:56;;;;;;;2.45;0.90;;;12.80;99.90;;;;;;5064593;28;20551;-78
2022/09/20 13:40:37;;;;;;;3.80;1.20;;;12.80;99.90;;;;;;5079488;28;20516;-77
2022/09/20 13:43:22;;;;;;;4.00;1.70;;;12.80;99.90;;;;;;5059846;28;20085;-79
2022/09/20 13:45:59;;;;;;;7.20;0.87;;;12.80;99.90;;;;;;5079697;28;20028;-77
2022/09/20 13:48:28;;;;;;;6.65;1.83;;;12.80;99.90;;;;;;5083414;28;20090;-77
2022/09/20 13:50:57;;;;;;;2.67;0.77;;;12.70;99.90;;;;;;5077011;28;20040;-77
2022/09/20 13:53:27;;;;;;;8.90;1.95;;;12.80;99.90;;;;;;5079574;28;20493;-76
2022/09/20 13:55:54;;;;;;;10.63;1.83;;;12.70;99.90;;;;;;5066638;28;20082;-76
2022/09/20 13:58:31;;;;;;;2.75;0.80;;;12.70;99.90;;;;;;5073706;28;20024;-76
2022/09/20 14:01:19;;;;;;;2.30;0.70;;;12.70;99.90;;;;;;5074986;28;20035;-76
2022/09/20 14:03:47;;;;;;;5.45;1.30;;;12.60;99.90;;;;;;5071122;28;20035;-77
2022/09/20 14:06:15;;;;;;;4.50;1.38;;;12.60;99.90;;;;;;5080704;28;20055;-76
2022/09/20 14:08:46;;;;;;;6.00;1.48;;;12.50;99.90;;;;;;5073079;28;20047;-76